sensor_id;sensor_type;location;lat;lon;timestamp;P1;P2;P0
14880;PMS7003;7533;51.278;12.588;2023-01-25T00:00:39;11.00;10.50;7.00
14880;PMS7003;7533;51.278;12.588;2023-01-25T00:05:42;12.25;11.25;6.75
14880;PMS7003;7533;51.278;12.588;2023-01-25T00:10:49;14.00;9.75;6.00
14880;PMS7003;7533;51.278;12.588;2023-01-25T00:15:59;15.00;11.50;7.50
14880;PMS7003;7533;51.278;12.588;2023-01-25T00:21:10;11.25;10.25;6.00
14880;PMS7003;7533;51.278;12.588;2023-01-25T00:26:13;10.25;10.25;5.75
14880;PMS7003;7533;51.278;12.588;2023-01-25T00:31:24;10.50;9.00;6.00
14880;PMS7003;7533;51.278;12.588;2023-01-25T00:36:32;14.50;12.25;6.25
14880;PMS7003;7533;51.278;12.588;2023-01-25T00:41:41;12.50;12.50;7.00
14880;PMS7003;7533;51.278;12.588;2023-01-25T00:46:46;12.50;9.75;7.00
14880;PMS7003;7533;51.278;12.588;2023-01-25T00:51:49;13.75;12.25;7.50
14880;PMS7003;7533;51.278;12.588;2023-01-25T00:56:52;11.75;11.00;6.50
14880;PMS7003;7533;51.278;12.588;2023-01-25T01:01:58;10.75;10.50;6.75
14880;PMS7003;7533;51.278;12.588;2023-01-25T01:07:02;13.50;12.00;5.50
14880;PMS7003;7533;51.278;12.588;2023-01-25T01:12:05;11.50;10.00;6.00
14880;PMS7003;7533;51.278;12.588;2023-01-25T01:17:09;11.25;8.25;5.75
14880;PMS7003;7533;51.278;12.588;2023-01-25T01:22:13;11.25;10.25;5.00
14880;PMS7003;7533;51.278;12.588;2023-01-25T01:27:16;13.25;10.25;6.75
14880;PMS7003;7533;51.278;12.588;2023-01-25T01:32:20;11.25;11.25;6.00
14880;PMS7003;7533;51.278;12.588;2023-01-25T01:37:25;10.25;9.50;6.00
14880;PMS7003;7533;51.278;12.588;2023-01-25T01:42:28;12.75;11.25;6.25
14880;PMS7003;7533;51.278;12.588;2023-01-25T01:47:34;10.25;10.25;5.75
14880;PMS7003;7533;51.278;12.588;2023-01-25T01:52:47;10.50;9.50;6.25
14880;PMS7003;7533;51.278;12.588;2023-01-25T01:57:52;9.00;8.75;5.25
14880;PMS7003;7533;51.278;12.588;2023-01-25T02:03:00;11.50;10.75;6.50
14880;PMS7003;7533;51.278;12.588;2023-01-25T02:08:04;8.00;8.00;6.00
14880;PMS7003;7533;51.278;12.588;2023-01-25T02:13:10;12.75;11.50;6.00
14880;PMS7003;7533;51.278;12.588;2023-01-25T02:18:15;12.50;10.00;5.00
14880;PMS7003;7533;51.278;12.588;2023-01-25T02:23:22;12.00;11.00;5.00
14880;PMS7003;7533;51.278;12.588;2023-01-25T02:28:33;13.25;10.75;5.75
14880;PMS7003;7533;51.278;12.588;2023-01-25T02:33:39;8.50;8.00;4.50
14880;PMS7003;7533;51.278;12.588;2023-01-25T02:38:45;9.25;8.75;4.50
14880;PMS7003;7533;51.278;12.588;2023-01-25T02:43:52;10.25;8.25;5.25
14880;PMS7003;7533;51.278;12.588;2023-01-25T02:48:56;10.25;9.00;5.00
14880;PMS7003;7533;51.278;12.588;2023-01-25T02:54:02;10.00;9.00;5.00
14880;PMS7003;7533;51.278;12.588;2023-01-25T02:59:10;9.75;9.00;5.50
14880;PMS7003;7533;51.278;12.588;2023-01-25T03:04:17;8.50;7.50;4.50
14880;PMS7003;7533;51.278;12.588;2023-01-25T03:09:21;9.00;8.75;5.00
14880;PMS7003;7533;51.278;12.588;2023-01-25T03:14:26;7.75;7.75;4.50
14880;PMS7003;7533;51.278;12.588;2023-01-25T03:19:28;9.75;9.75;5.25
14880;PMS7003;7533;51.278;12.588;2023-01-25T03:24:31;8.00;8.00;5.25
14880;PMS7003;7533;51.278;12.588;2023-01-25T03:29:37;9.00;7.75;5.00
14880;PMS7003;7533;51.278;12.588;2023-01-25T03:34:45;10.00;9.50;4.25
14880;PMS7003;7533;51.278;12.588;2023-01-25T03:39:49;10.00;9.00;5.00
14880;PMS7003;7533;51.278;12.588;2023-01-25T03:44:55;7.00;7.00;4.00
14880;PMS7003;7533;51.278;12.588;2023-01-25T03:49:58;9.75;9.00;5.00
14880;PMS7003;7533;51.278;12.588;2023-01-25T03:55:01;8.00;8.00;5.00
14880;PMS7003;7533;51.278;12.588;2023-01-25T04:00:06;10.25;9.25;5.00
14880;PMS7003;7533;51.278;12.588;2023-01-25T04:05:18;9.00;6.25;4.00
14880;PMS7003;7533;51.278;12.588;2023-01-25T04:10:21;9.00;9.00;5.75
14880;PMS7003;7533;51.278;12.588;2023-01-25T04:15:25;10.00;9.00;6.00
14880;PMS7003;7533;51.278;12.588;2023-01-25T04:20:33;7.75;7.75;5.00
14880;PMS7003;7533;51.278;12.588;2023-01-25T04:25:37;8.25;8.25;5.00
14880;PMS7003;7533;51.278;12.588;2023-01-25T04:30:46;7.00;6.75;4.00
14880;PMS7003;7533;51.278;12.588;2023-01-25T04:35:50;10.50;8.50;5.00
14880;PMS7003;7533;51.278;12.588;2023-01-25T04:40:54;9.75;8.00;5.00
14880;PMS7003;7533;51.278;12.588;2023-01-25T04:45:58;9.50;8.50;4.25
14880;PMS7003;7533;51.278;12.588;2023-01-25T04:51:05;10.00;9.50;4.25
14880;PMS7003;7533;51.278;12.588;2023-01-25T04:56:09;6.75;6.75;3.50
14880;PMS7003;7533;51.278;12.588;2023-01-25T05:01:25;8.00;7.00;5.00
14880;PMS7003;7533;51.278;12.588;2023-01-25T05:06:28;10.50;7.50;4.00
14880;PMS7003;7533;51.278;12.588;2023-01-25T05:11:31;9.00;8.00;3.50
14880;PMS7003;7533;51.278;12.588;2023-01-25T05:16:51;7.50;7.50;4.00
14880;PMS7003;7533;51.278;12.588;2023-01-25T05:21:55;9.25;6.50;4.75
14880;PMS7003;7533;51.278;12.588;2023-01-25T05:27:06;7.25;5.50;3.75
14880;PMS7003;7533;51.278;12.588;2023-01-25T05:32:35;10.00;8.00;4.50
14880;PMS7003;7533;51.278;12.588;2023-01-25T05:37:37;8.50;7.25;3.25
14880;PMS7003;7533;51.278;12.588;2023-01-25T05:42:51;8.00;8.00;5.00
14880;PMS7003;7533;51.278;12.588;2023-01-25T05:47:58;7.25;7.25;4.00
14880;PMS7003;7533;51.278;12.588;2023-01-25T05:53:01;7.25;6.75;4.75
14880;PMS7003;7533;51.278;12.588;2023-01-25T05:58:04;7.50;7.50;4.00
14880;PMS7003;7533;51.278;12.588;2023-01-25T06:03:08;9.25;7.25;4.00
14880;PMS7003;7533;51.278;12.588;2023-01-25T06:08:13;9.00;8.00;5.00
14880;PMS7003;7533;51.278;12.588;2023-01-25T06:13:24;6.00;6.00;4.00
14880;PMS7003;7533;51.278;12.588;2023-01-25T06:18:29;8.25;6.75;4.00
14880;PMS7003;7533;51.278;12.588;2023-01-25T06:23:53;6.50;6.00;3.00
14880;PMS7003;7533;51.278;12.588;2023-01-25T06:28:55;7.00;7.00;4.00
14880;PMS7003;7533;51.278;12.588;2023-01-25T06:34:00;7.75;7.75;4.50
14880;PMS7003;7533;51.278;12.588;2023-01-25T06:39:06;5.00;4.50;2.75
14880;PMS7003;7533;51.278;12.588;2023-01-25T06:44:09;8.00;8.00;4.50
14880;PMS7003;7533;51.278;12.588;2023-01-25T06:49:13;7.75;6.00;4.00
14880;PMS7003;7533;51.278;12.588;2023-01-25T06:54:16;6.25;6.25;3.00
14880;PMS7003;7533;51.278;12.588;2023-01-25T06:59:19;8.25;7.00;4.50
14880;PMS7003;7533;51.278;12.588;2023-01-25T07:04:23;7.00;6.00;3.00
14880;PMS7003;7533;51.278;12.588;2023-01-25T07:09:26;5.75;5.75;3.00
14880;PMS7003;7533;51.278;12.588;2023-01-25T07:14:29;10.00;8.25;4.00
14880;PMS7003;7533;51.278;12.588;2023-01-25T07:19:33;7.75;5.25;3.50
14880;PMS7003;7533;51.278;12.588;2023-01-25T07:24:36;8.25;7.00;3.75
14880;PMS7003;7533;51.278;12.588;2023-01-25T07:29:39;7.00;7.00;3.75
14880;PMS7003;7533;51.278;12.588;2023-01-25T07:34:43;7.50;6.00;3.00
14880;PMS7003;7533;51.278;12.588;2023-01-25T07:39:46;10.25;8.25;3.75
14880;PMS7003;7533;51.278;12.588;2023-01-25T07:44:50;9.50;8.00;3.00
14880;PMS7003;7533;51.278;12.588;2023-01-25T07:49:55;6.00;6.00;3.25
14880;PMS7003;7533;51.278;12.588;2023-01-25T07:54:57;7.25;3.75;2.00
14880;PMS7003;7533;51.278;12.588;2023-01-25T08:00:00;5.75;5.00;3.00
14880;PMS7003;7533;51.278;12.588;2023-01-25T08:05:14;6.50;6.50;4.00
14880;PMS7003;7533;51.278;12.588;2023-01-25T08:10:17;6.50;6.50;2.00
14880;PMS7003;7533;51.278;12.588;2023-01-25T08:15:19;6.75;6.00;3.00
14880;PMS7003;7533;51.278;12.588;2023-01-25T08:20:24;5.50;5.00;2.75
14880;PMS7003;7533;51.278;12.588;2023-01-25T08:25:27;6.00;6.00;3.50
14880;PMS7003;7533;51.278;12.588;2023-01-25T08:30:30;6.50;6.50;3.75
14880;PMS7003;7533;51.278;12.588;2023-01-25T08:35:34;6.25;5.25;3.00
14880;PMS7003;7533;51.278;12.588;2023-01-25T08:40:37;6.00;4.50;3.00
14880;PMS7003;7533;51.278;12.588;2023-01-25T08:45:40;7.25;6.00;3.25
14880;PMS7003;7533;51.278;12.588;2023-01-25T08:50:47;6.50;6.50;3.00
14880;PMS7003;7533;51.278;12.588;2023-01-25T08:55:50;6.00;6.00;3.25
14880;PMS7003;7533;51.278;12.588;2023-01-25T09:00:53;6.50;6.00;3.00
14880;PMS7003;7533;51.278;12.588;2023-01-25T09:05:57;7.50;6.00;3.00
14880;PMS7003;7533;51.278;12.588;2023-01-25T09:11:00;6.25;4.50;2.50
14880;PMS7003;7533;51.278;12.588;2023-01-25T09:16:04;7.25;5.25;2.75
14880;PMS7003;7533;51.278;12.588;2023-01-25T09:21:12;5.50;4.75;3.00
14880;PMS7003;7533;51.278;12.588;2023-01-25T09:26:16;9.50;6.50;3.00
14880;PMS7003;7533;51.278;12.588;2023-01-25T09:31:19;20.00;18.25;10.25
14880;PMS7003;7533;51.278;12.588;2023-01-25T09:36:52;25.50;18.25;10.50
14880;PMS7003;7533;51.278;12.588;2023-01-25T09:42:01;24.75;19.00;9.50
14880;PMS7003;7533;51.278;12.588;2023-01-25T09:47:17;24.75;16.75;10.00
14880;PMS7003;7533;51.278;12.588;2023-01-25T09:52:38;16.75;13.25;7.00
14880;PMS7003;7533;51.278;12.588;2023-01-25T09:57:59;15.00;11.50;7.00
14880;PMS7003;7533;51.278;12.588;2023-01-25T10:03:06;14.00;12.00;7.00
14880;PMS7003;7533;51.278;12.588;2023-01-25T10:08:20;13.50;12.75;8.75
14880;PMS7003;7533;51.278;12.588;2023-01-25T10:13:29;13.25;10.50;6.50
14880;PMS7003;7533;51.278;12.588;2023-01-25T10:18:33;17.00;12.50;7.00
14880;PMS7003;7533;51.278;12.588;2023-01-25T10:23:48;13.50;11.75;6.25
14880;PMS7003;7533;51.278;12.588;2023-01-25T10:29:07;10.50;9.00;4.75
14880;PMS7003;7533;51.278;12.588;2023-01-25T10:34:16;14.00;10.00;5.75
14880;PMS7003;7533;51.278;12.588;2023-01-25T10:39:22;10.25;9.50;5.50
14880;PMS7003;7533;51.278;12.588;2023-01-25T10:44:26;11.00;9.75;7.00
14880;PMS7003;7533;51.278;12.588;2023-01-25T10:49:32;10.50;9.50;5.50
14880;PMS7003;7533;51.278;12.588;2023-01-25T10:54:42;10.25;9.50;5.75
14880;PMS7003;7533;51.278;12.588;2023-01-25T10:59:47;11.25;8.50;4.75
14880;PMS7003;7533;51.278;12.588;2023-01-25T11:04:52;8.50;7.75;3.75
14880;PMS7003;7533;51.278;12.588;2023-01-25T11:09:56;10.75;7.25;4.00
14880;PMS7003;7533;51.278;12.588;2023-01-25T11:15:00;9.25;8.75;4.75
14880;PMS7003;7533;51.278;12.588;2023-01-25T11:20:26;10.75;7.00;4.00
14880;PMS7003;7533;51.278;12.588;2023-01-25T11:25:31;8.75;8.25;5.00
14880;PMS7003;7533;51.278;12.588;2023-01-25T11:30:35;9.00;7.75;5.00
14880;PMS7003;7533;51.278;12.588;2023-01-25T11:35:40;10.25;9.25;5.75
14880;PMS7003;7533;51.278;12.588;2023-01-25T11:40:53;9.50;7.50;4.25
14880;PMS7003;7533;51.278;12.588;2023-01-25T11:46:05;9.75;6.25;4.00
14880;PMS7003;7533;51.278;12.588;2023-01-25T11:51:20;9.00;6.25;4.00
14880;PMS7003;7533;51.278;12.588;2023-01-25T11:56:32;8.50;6.00;3.25
14880;PMS7003;7533;51.278;12.588;2023-01-25T12:01:54;7.00;7.00;3.75
14880;PMS7003;7533;51.278;12.588;2023-01-25T12:07:09;11.75;7.75;3.75
14880;PMS7003;7533;51.278;12.588;2023-01-25T12:12:26;11.50;10.00;5.75
14880;PMS7003;7533;51.278;12.588;2023-01-25T12:17:41;9.50;9.25;4.75
14880;PMS7003;7533;51.278;12.588;2023-01-25T12:23:01;8.50;8.50;3.50
14880;PMS7003;7533;51.278;12.588;2023-01-25T12:28:35;8.75;7.50;4.75
14880;PMS7003;7533;51.278;12.588;2023-01-25T12:33:45;8.00;7.00;3.00
14880;PMS7003;7533;51.278;12.588;2023-01-25T12:38:53;9.50;8.00;5.25
14880;PMS7003;7533;51.278;12.588;2023-01-25T12:44:05;8.25;6.75;4.00
14880;PMS7003;7533;51.278;12.588;2023-01-25T12:49:14;7.50;6.50;5.00
14880;PMS7003;7533;51.278;12.588;2023-01-25T12:54:23;9.75;7.75;4.50
14880;PMS7003;7533;51.278;12.588;2023-01-25T12:59:35;10.00;9.25;4.50
14880;PMS7003;7533;51.278;12.588;2023-01-25T13:04:52;8.50;7.50;4.50
14880;PMS7003;7533;51.278;12.588;2023-01-25T13:10:02;9.75;6.50;4.00
14880;PMS7003;7533;51.278;12.588;2023-01-25T13:20:48;20.50;19.25;12.50
14880;PMS7003;7533;51.278;12.588;2023-01-25T13:25:56;39.20;32.80;22.20
14880;PMS7003;7533;51.278;12.588;2023-01-25T13:31:45;24.75;23.25;14.00
14880;PMS7003;7533;51.278;12.588;2023-01-25T13:36:53;24.75;19.25;12.75
14880;PMS7003;7533;51.278;12.588;2023-01-25T13:41:57;23.75;21.75;13.00
14880;PMS7003;7533;51.278;12.588;2023-01-25T13:47:03;28.00;24.75;15.75
14880;PMS7003;7533;51.278;12.588;2023-01-25T13:52:10;24.75;21.75;15.75
14880;PMS7003;7533;51.278;12.588;2023-01-25T13:57:19;26.25;23.50;15.50
14880;PMS7003;7533;51.278;12.588;2023-01-25T14:02:25;24.00;22.25;16.00
14880;PMS7003;7533;51.278;12.588;2023-01-25T14:07:29;28.75;26.25;16.50
14880;PMS7003;7533;51.278;12.588;2023-01-25T14:12:35;30.00;28.00;17.80
14880;PMS7003;7533;51.278;12.588;2023-01-25T14:17:41;27.75;23.50;16.25
14880;PMS7003;7533;51.278;12.588;2023-01-25T14:22:48;25.50;24.00;15.50
14880;PMS7003;7533;51.278;12.588;2023-01-25T14:27:52;29.00;26.50;15.00
14880;PMS7003;7533;51.278;12.588;2023-01-25T14:32:58;23.25;19.75;13.25
14880;PMS7003;7533;51.278;12.588;2023-01-25T14:38:15;23.50;22.50;14.50
14880;PMS7003;7533;51.278;12.588;2023-01-25T14:43:22;22.00;20.75;14.00
14880;PMS7003;7533;51.278;12.588;2023-01-25T14:48:35;29.00;24.00;14.75
14880;PMS7003;7533;51.278;12.588;2023-01-25T14:53:42;22.75;18.75;12.00
14880;PMS7003;7533;51.278;12.588;2023-01-25T14:58:47;20.25;19.00;13.50
14880;PMS7003;7533;51.278;12.588;2023-01-25T15:04:01;22.75;20.00;13.00
14880;PMS7003;7533;51.278;12.588;2023-01-25T15:09:04;29.25;23.50;14.75
14880;PMS7003;7533;51.278;12.588;2023-01-25T15:14:27;21.25;19.75;14.00
14880;PMS7003;7533;51.278;12.588;2023-01-25T15:19:32;22.25;18.25;13.00
14880;PMS7003;7533;51.278;12.588;2023-01-25T15:24:35;25.50;20.25;14.25
14880;PMS7003;7533;51.278;12.588;2023-01-25T15:29:42;22.50;21.50;15.00
14880;PMS7003;7533;51.278;12.588;2023-01-25T15:34:46;21.50;18.75;12.50
14880;PMS7003;7533;51.278;12.588;2023-01-25T15:39:51;20.75;19.50;12.75
14880;PMS7003;7533;51.278;12.588;2023-01-25T15:44:54;21.75;21.50;13.00
14880;PMS7003;7533;51.278;12.588;2023-01-25T15:49:58;23.75;19.50;13.00
14880;PMS7003;7533;51.278;12.588;2023-01-25T15:55:01;23.00;20.25;12.25
14880;PMS7003;7533;51.278;12.588;2023-01-25T16:00:04;23.00;20.00;12.00
14880;PMS7003;7533;51.278;12.588;2023-01-25T16:05:10;22.75;18.75;13.75
14880;PMS7003;7533;51.278;12.588;2023-01-25T16:10:20;25.25;21.50;11.25
14880;PMS7003;7533;51.278;12.588;2023-01-25T16:15:24;20.25;17.50;11.50
14880;PMS7003;7533;51.278;12.588;2023-01-25T16:20:28;22.00;19.00;11.00
14880;PMS7003;7533;51.278;12.588;2023-01-25T16:25:32;18.00;16.25;11.00
14880;PMS7003;7533;51.278;12.588;2023-01-25T16:30:34;17.25;16.50;11.00
14880;PMS7003;7533;51.278;12.588;2023-01-25T16:35:39;17.50;16.00;9.50
14880;PMS7003;7533;51.278;12.588;2023-01-25T16:40:42;23.00;20.00;12.75
14880;PMS7003;7533;51.278;12.588;2023-01-25T16:45:45;19.25;17.25;11.25
14880;PMS7003;7533;51.278;12.588;2023-01-25T16:50:49;21.25;18.00;11.00
14880;PMS7003;7533;51.278;12.588;2023-01-25T16:55:53;17.25;15.50;10.00
14880;PMS7003;7533;51.278;12.588;2023-01-25T17:00:56;18.00;18.00;12.00
14880;PMS7003;7533;51.278;12.588;2023-01-25T17:06:00;23.25;19.50;11.75
14880;PMS7003;7533;51.278;12.588;2023-01-25T17:11:03;18.00;18.00;12.25
14880;PMS7003;7533;51.278;12.588;2023-01-25T17:16:07;25.75;23.00;14.00
14880;PMS7003;7533;51.278;12.588;2023-01-25T17:21:12;22.00;22.00;12.75
14880;PMS7003;7533;51.278;12.588;2023-01-25T17:26:17;21.50;20.25;12.25
14880;PMS7003;7533;51.278;12.588;2023-01-25T17:31:23;21.25;20.25;12.25
14880;PMS7003;7533;51.278;12.588;2023-01-25T17:36:29;22.75;18.75;12.75
14880;PMS7003;7533;51.278;12.588;2023-01-25T17:41:32;20.25;20.00;12.50
14880;PMS7003;7533;51.278;12.588;2023-01-25T17:46:35;19.75;19.00;12.50
14880;PMS7003;7533;51.278;12.588;2023-01-25T17:51:40;20.75;17.00;10.00
14880;PMS7003;7533;51.278;12.588;2023-01-25T17:56:42;17.75;16.75;11.00
14880;PMS7003;7533;51.278;12.588;2023-01-25T18:01:45;19.75;18.00;12.00
14880;PMS7003;7533;51.278;12.588;2023-01-25T18:06:50;17.25;16.75;11.00
14880;PMS7003;7533;51.278;12.588;2023-01-25T18:11:52;20.00;18.00;11.00
14880;PMS7003;7533;51.278;12.588;2023-01-25T18:16:55;21.75;19.25;10.25
14880;PMS7003;7533;51.278;12.588;2023-01-25T18:21:59;16.50;16.00;10.75
14880;PMS7003;7533;51.278;12.588;2023-01-25T18:27:03;19.00;15.50;10.00
14880;PMS7003;7533;51.278;12.588;2023-01-25T18:32:08;19.25;15.00;10.75
14880;PMS7003;7533;51.278;12.588;2023-01-25T18:37:12;17.25;15.25;10.25
14880;PMS7003;7533;51.278;12.588;2023-01-25T18:42:22;20.50;19.00;11.00
14880;PMS7003;7533;51.278;12.588;2023-01-25T18:47:26;18.25;18.25;11.00
14880;PMS7003;7533;51.278;12.588;2023-01-25T18:52:30;17.50;16.00;10.00
14880;PMS7003;7533;51.278;12.588;2023-01-25T18:57:33;19.50;16.00;10.00
14880;PMS7003;7533;51.278;12.588;2023-01-25T19:02:36;16.00;15.50;10.25
14880;PMS7003;7533;51.278;12.588;2023-01-25T19:07:40;16.25;14.50;10.00
14880;PMS7003;7533;51.278;12.588;2023-01-25T19:12:43;15.50;14.75;8.50
14880;PMS7003;7533;51.278;12.588;2023-01-25T19:17:46;21.50;15.50;9.75
14880;PMS7003;7533;51.278;12.588;2023-01-25T19:22:50;17.25;14.00;9.00
14880;PMS7003;7533;51.278;12.588;2023-01-25T19:27:54;21.00;15.00;10.00
14880;PMS7003;7533;51.278;12.588;2023-01-25T19:32:57;17.25;15.50;9.00
14880;PMS7003;7533;51.278;12.588;2023-01-25T19:38:01;18.25;16.00;9.00
14880;PMS7003;7533;51.278;12.588;2023-01-25T19:43:04;17.00;15.25;9.50
14880;PMS7003;7533;51.278;12.588;2023-01-25T19:48:07;17.25;15.25;8.25
14880;PMS7003;7533;51.278;12.588;2023-01-25T19:53:11;16.75;14.75;9.75
14880;PMS7003;7533;51.278;12.588;2023-01-25T19:58:14;15.50;14.50;9.00
14880;PMS7003;7533;51.278;12.588;2023-01-25T20:03:17;16.00;14.00;9.00
14880;PMS7003;7533;51.278;12.588;2023-01-25T20:08:21;17.25;14.00;9.75
14880;PMS7003;7533;51.278;12.588;2023-01-25T20:13:24;14.75;14.75;9.00
14880;PMS7003;7533;51.278;12.588;2023-01-25T20:18:28;14.75;13.75;7.25
14880;PMS7003;7533;51.278;12.588;2023-01-25T20:23:34;14.25;14.25;8.25
14880;PMS7003;7533;51.278;12.588;2023-01-25T20:28:39;16.50;13.75;9.00
14880;PMS7003;7533;51.278;12.588;2023-01-25T20:33:43;14.25;13.75;8.25
14880;PMS7003;7533;51.278;12.588;2023-01-25T20:38:47;16.25;12.00;8.25
14880;PMS7003;7533;51.278;12.588;2023-01-25T20:43:51;14.50;12.50;7.25
14880;PMS7003;7533;51.278;12.588;2023-01-25T20:48:57;12.25;12.25;7.25
14880;PMS7003;7533;51.278;12.588;2023-01-25T20:54:01;15.75;14.50;8.50
14880;PMS7003;7533;51.278;12.588;2023-01-25T20:59:04;14.00;13.25;8.75
14880;PMS7003;7533;51.278;12.588;2023-01-25T21:04:07;14.00;13.00;8.00
14880;PMS7003;7533;51.278;12.588;2023-01-25T21:09:13;12.00;9.00;6.00
14880;PMS7003;7533;51.278;12.588;2023-01-25T21:14:16;12.50;11.00;6.00
14880;PMS7003;7533;51.278;12.588;2023-01-25T21:19:19;11.50;9.75;6.00
14880;PMS7003;7533;51.278;12.588;2023-01-25T21:24:23;13.25;12.00;7.00
14880;PMS7003;7533;51.278;12.588;2023-01-25T21:29:26;15.00;12.75;7.75
14880;PMS7003;7533;51.278;12.588;2023-01-25T21:34:29;13.25;11.00;6.50
14880;PMS7003;7533;51.278;12.588;2023-01-25T21:39:35;14.25;12.25;6.75
14880;PMS7003;7533;51.278;12.588;2023-01-25T21:44:38;16.00;11.50;8.25
14880;PMS7003;7533;51.278;12.588;2023-01-25T21:49:58;15.25;12.00;8.50
14880;PMS7003;7533;51.278;12.588;2023-01-25T21:55:19;10.25;9.75;5.75
14880;PMS7003;7533;51.278;12.588;2023-01-25T22:00:22;13.00;11.25;7.75
14880;PMS7003;7533;51.278;12.588;2023-01-25T22:05:25;14.75;12.75;8.00
14880;PMS7003;7533;51.278;12.588;2023-01-25T22:10:29;11.75;11.50;7.00
14880;PMS7003;7533;51.278;12.588;2023-01-25T22:15:32;12.75;10.25;7.00
14880;PMS7003;7533;51.278;12.588;2023-01-25T22:20:35;11.00;10.75;6.00
14880;PMS7003;7533;51.278;12.588;2023-01-25T22:25:39;13.50;12.25;7.50
14880;PMS7003;7533;51.278;12.588;2023-01-25T22:30:42;11.50;9.75;6.00
14880;PMS7003;7533;51.278;12.588;2023-01-25T22:35:45;10.50;10.50;6.25
14880;PMS7003;7533;51.278;12.588;2023-01-25T22:40:49;13.75;11.75;6.50
14880;PMS7003;7533;51.278;12.588;2023-01-25T22:45:52;11.50;11.00;6.75
14880;PMS7003;7533;51.278;12.588;2023-01-25T22:50:58;12.25;10.75;6.50
14880;PMS7003;7533;51.278;12.588;2023-01-25T22:56:04;10.00;9.00;6.00
14880;PMS7003;7533;51.278;12.588;2023-01-25T23:01:09;12.25;9.25;7.00
14880;PMS7003;7533;51.278;12.588;2023-01-25T23:06:14;13.50;11.75;7.00
14880;PMS7003;7533;51.278;12.588;2023-01-25T23:11:20;10.00;10.00;6.50
14880;PMS7003;7533;51.278;12.588;2023-01-25T23:16:24;11.25;10.50;6.25
14880;PMS7003;7533;51.278;12.588;2023-01-25T23:21:28;10.25;9.25;6.00
14880;PMS7003;7533;51.278;12.588;2023-01-25T23:26:32;12.00;10.75;6.25
14880;PMS7003;7533;51.278;12.588;2023-01-25T23:31:39;9.50;8.00;6.00
14880;PMS7003;7533;51.278;12.588;2023-01-25T23:36:42;11.00;9.75;6.25
14880;PMS7003;7533;51.278;12.588;2023-01-25T23:41:46;10.75;9.25;4.75
14880;PMS7003;7533;51.278;12.588;2023-01-25T23:46:51;11.25;8.25;5.25
14880;PMS7003;7533;51.278;12.588;2023-01-25T23:51:54;10.25;10.00;5.75
14880;PMS7003;7533;51.278;12.588;2023-01-25T23:56:58;10.25;9.00;5.75
